createdAt,value
2023-07-14T00:00:37.020Z,4.17
2023-07-14T00:03:13.388Z,4.53
2023-07-14T00:05:47.882Z,4.45
2023-07-14T00:08:22.034Z,3.90
2023-07-14T00:10:56.390Z,4.83
2023-07-14T00:13:30.172Z,4.47
2023-07-14T00:16:03.646Z,4.95
2023-07-14T00:18:37.890Z,4.40
2023-07-14T00:21:17.889Z,4.72
2023-07-14T00:23:52.353Z,4.60
2023-07-14T00:26:26.740Z,4.47
2023-07-14T00:29:03.400Z,6.05
2023-07-14T00:31:51.514Z,2.98
2023-07-14T00:34:26.154Z,3.90
2023-07-14T00:37:01.744Z,3.60
2023-07-14T00:39:35.631Z,4.10
2023-07-14T00:42:12.784Z,4.50
2023-07-14T00:44:47.378Z,4.33
2023-07-14T00:47:24.540Z,4.45
2023-07-14T00:49:59.871Z,4.03
2023-07-14T00:52:36.923Z,4.33
2023-07-14T00:55:26.172Z,4.42
2023-07-14T00:58:00.734Z,3.08
2023-07-14T01:00:34.884Z,3.72
2023-07-14T01:03:16.619Z,4.35
2023-07-14T01:05:50.555Z,4.47
2023-07-14T01:08:25.920Z,3.65
2023-07-14T01:11:01.110Z,4.87
2023-07-14T01:13:35.377Z,4.60
2023-07-14T01:16:09.530Z,3.75
2023-07-14T01:18:44.250Z,3.98
2023-07-14T01:21:22.535Z,4.20
2023-07-14T01:24:05.222Z,3.98
2023-07-14T01:26:59.809Z,3.55
2023-07-14T01:29:34.129Z,4.47
2023-07-14T01:32:14.795Z,4.25
2023-07-14T01:34:48.741Z,4.47
2023-07-14T01:37:24.185Z,5.00
2023-07-14T01:39:59.202Z,4.90
2023-07-14T01:42:35.093Z,5.10
2023-07-14T01:45:14.245Z,5.08
2023-07-14T01:47:51.030Z,5.25
2023-07-14T01:50:28.147Z,4.22
2023-07-14T01:53:04.842Z,4.28
2023-07-14T01:55:41.000Z,5.28
2023-07-14T01:58:18.124Z,4.45
2023-07-14T02:00:54.803Z,5.10
2023-07-14T02:03:32.914Z,4.67
2023-07-14T02:06:07.258Z,4.67
2023-07-14T02:08:40.839Z,4.67
2023-07-14T02:11:17.397Z,5.33
2023-07-14T02:13:52.962Z,5.08
2023-07-14T02:16:28.716Z,4.60
2023-07-14T02:19:02.739Z,4.58
2023-07-14T02:21:38.405Z,4.85
2023-07-14T02:24:15.055Z,3.42
2023-07-14T02:26:51.462Z,4.40
2023-07-14T02:29:25.598Z,4.83
2023-07-14T02:32:02.465Z,4.15
2023-07-14T02:34:39.501Z,4.67
2023-07-14T02:37:58.779Z,4.07
2023-07-14T02:40:50.624Z,3.98
2023-07-14T02:43:25.713Z,4.15
2023-07-14T02:46:02.355Z,3.70
2023-07-14T02:48:39.348Z,2.40
2023-07-14T02:51:14.146Z,3.40
2023-07-14T02:53:48.392Z,3.33
2023-07-14T02:56:23.076Z,2.15
2023-07-14T02:58:56.931Z,2.20
2023-07-14T03:01:34.076Z,2.95
2023-07-14T03:04:08.378Z,2.58
2023-07-14T03:06:43.929Z,2.52
2023-07-14T03:09:17.929Z,2.58
2023-07-14T03:11:51.650Z,2.20
2023-07-14T03:14:25.910Z,2.35
2023-07-14T03:16:59.426Z,2.80
2023-07-14T03:19:32.913Z,2.45
2023-07-14T03:22:07.295Z,2.40
2023-07-14T03:24:40.938Z,1.80
2023-07-14T03:27:14.772Z,2.30
2023-07-14T03:29:49.644Z,2.30
2023-07-14T03:32:23.644Z,2.40
2023-07-14T03:34:57.493Z,2.37
2023-07-14T03:37:31.923Z,2.27
2023-07-14T03:40:06.622Z,2.27
2023-07-14T03:42:41.677Z,1.92
2023-07-14T03:45:15.336Z,2.20
2023-07-14T03:47:50.825Z,2.20
2023-07-14T03:50:24.936Z,1.90
2023-07-14T03:52:58.562Z,2.15
2023-07-14T03:55:34.844Z,2.15
2023-07-14T03:58:08.510Z,1.90
2023-07-14T04:00:42.281Z,1.80
2023-07-14T04:03:16.731Z,1.95
2023-07-14T04:05:50.718Z,2.10
2023-07-14T04:08:25.578Z,2.47
2023-07-14T04:11:15.107Z,1.92
2023-07-14T04:13:51.058Z,1.90
2023-07-14T04:16:25.561Z,1.60
2023-07-14T04:18:59.649Z,1.15
2023-07-14T04:21:33.456Z,1.65
2023-07-14T04:24:08.653Z,1.80
2023-07-14T04:26:56.984Z,1.57
2023-07-14T04:29:30.882Z,1.42
2023-07-14T04:32:05.030Z,1.12
2023-07-14T04:34:39.200Z,1.27
2023-07-14T04:37:12.936Z,1.47
2023-07-14T04:39:47.458Z,1.40
2023-07-14T04:42:21.200Z,1.02
2023-07-14T04:44:54.758Z,1.42
2023-07-14T04:47:28.921Z,1.92
2023-07-14T04:50:02.710Z,1.27
2023-07-14T04:52:36.864Z,1.30
2023-07-14T04:55:12.030Z,2.00
2023-07-14T04:57:46.088Z,1.98
2023-07-14T05:00:22.143Z,1.70
2023-07-14T05:02:55.724Z,1.17
2023-07-14T05:05:29.547Z,0.70
2023-07-14T05:08:03.460Z,1.60
2023-07-14T05:10:38.587Z,1.15
2023-07-14T05:13:12.598Z,1.45
2023-07-14T05:15:48.431Z,1.40
2023-07-14T05:18:22.506Z,1.10
2023-07-14T05:21:01.027Z,1.40
2023-07-14T05:23:35.665Z,1.35
2023-07-14T05:26:23.655Z,1.30
2023-07-14T05:28:57.397Z,1.42
2023-07-14T05:31:31.038Z,1.40
2023-07-14T05:34:04.595Z,1.02
2023-07-14T05:36:39.504Z,1.20
2023-07-14T05:39:13.969Z,1.02
2023-07-14T05:41:48.916Z,1.52
2023-07-14T05:44:22.327Z,1.70
2023-07-14T05:46:56.353Z,1.25
2023-07-14T05:49:31.518Z,1.12
2023-07-14T05:52:19.916Z,1.32
2023-07-14T05:54:53.986Z,1.40
2023-07-14T05:57:42.277Z,1.30
2023-07-14T06:00:20.467Z,1.50
2023-07-14T06:02:54.300Z,1.02
2023-07-14T06:05:27.811Z,1.02
2023-07-14T06:08:01.991Z,0.90
2023-07-14T06:10:36.652Z,1.12
2023-07-14T06:13:10.476Z,0.80
2023-07-14T06:15:48.234Z,0.80
2023-07-14T06:18:22.728Z,1.05
2023-07-14T06:20:56.953Z,0.68
2023-07-14T06:23:31.355Z,0.72
2023-07-14T06:26:05.282Z,0.85
2023-07-14T06:28:39.576Z,0.90
2023-07-14T06:31:16.467Z,1.17
2023-07-14T06:33:50.397Z,0.90
2023-07-14T06:36:24.192Z,0.60
2023-07-14T06:38:58.098Z,1.05
2023-07-14T06:41:32.095Z,0.80
2023-07-14T06:44:23.673Z,1.12
2023-07-14T06:46:58.638Z,0.98
2023-07-14T06:49:32.675Z,1.02
2023-07-14T06:52:07.314Z,0.80
2023-07-14T06:54:43.066Z,1.20
2023-07-14T06:57:17.109Z,0.78
2023-07-14T06:59:51.304Z,1.27
2023-07-14T07:02:24.902Z,1.15
2023-07-14T07:05:13.043Z,0.90
2023-07-14T07:07:47.360Z,1.30
2023-07-14T07:10:21.363Z,1.15
2023-07-14T07:12:55.412Z,1.15
2023-07-14T07:15:29.378Z,1.20
2023-07-14T07:18:03.445Z,0.88
2023-07-14T07:20:39.533Z,1.00
2023-07-14T07:23:13.809Z,1.10
2023-07-14T07:25:52.299Z,1.30
2023-07-14T07:28:26.232Z,1.12
2023-07-14T07:30:59.892Z,1.27
2023-07-14T07:33:34.250Z,1.57
2023-07-14T07:36:24.096Z,1.57
2023-07-14T07:38:57.968Z,1.40
2023-07-14T07:41:31.766Z,1.40
2023-07-14T07:44:05.487Z,1.62
2023-07-14T07:46:39.868Z,1.50
2023-07-14T07:49:13.709Z,1.85
2023-07-14T07:51:47.609Z,1.77
2023-07-14T07:54:22.552Z,1.77
2023-07-14T07:56:56.509Z,1.80
2023-07-14T07:59:30.523Z,1.80
2023-07-14T08:02:04.504Z,1.90
2023-07-14T08:04:38.474Z,1.65
2023-07-14T08:07:14.252Z,2.05
2023-07-14T08:09:48.042Z,1.00
2023-07-14T08:12:22.632Z,1.22
2023-07-14T08:14:58.053Z,0.90
2023-07-14T08:17:33.117Z,0.85
2023-07-14T08:20:09.328Z,0.72
2023-07-14T08:22:43.046Z,1.15
2023-07-14T08:25:16.974Z,1.45
2023-07-14T08:27:50.702Z,1.05
2023-07-14T08:30:24.482Z,1.45
2023-07-14T08:32:58.056Z,1.60
2023-07-14T08:35:31.445Z,1.62
2023-07-14T08:38:19.687Z,1.75
2023-07-14T08:40:56.857Z,1.90
2023-07-14T08:43:36.365Z,1.00
2023-07-14T08:46:27.421Z,1.00
2023-07-14T08:49:04.623Z,1.57
2023-07-14T08:51:41.683Z,1.40
2023-07-14T08:54:19.046Z,1.37
2023-07-14T08:56:54.364Z,1.60
2023-07-14T08:59:35.290Z,1.47
2023-07-14T09:02:18.009Z,1.20
2023-07-14T09:04:57.117Z,1.80
2023-07-14T09:07:31.188Z,1.80
2023-07-14T09:10:05.400Z,1.75
2023-07-14T09:12:42.591Z,1.85
2023-07-14T09:15:20.698Z,1.87
2023-07-14T09:17:59.370Z,1.87
2023-07-14T09:20:59.375Z,2.33
2023-07-14T09:23:52.225Z,2.50
2023-07-14T09:26:42.705Z,3.33
2023-07-14T09:29:18.675Z,2.52
2023-07-14T09:31:56.374Z,2.12
2023-07-14T09:34:33.958Z,2.02
2023-07-14T09:37:14.891Z,2.25
2023-07-14T09:39:51.978Z,1.72
2023-07-14T09:42:28.897Z,1.45
2023-07-14T09:45:21.160Z,1.72
2023-07-14T09:47:58.052Z,2.37
2023-07-14T09:50:34.598Z,1.90
2023-07-14T09:53:09.852Z,2.00
2023-07-14T09:55:53.602Z,2.52
2023-07-14T09:58:29.834Z,1.87
2023-07-14T10:01:06.893Z,2.00
2023-07-14T10:03:45.653Z,2.17
2023-07-14T10:06:33.839Z,2.27
2023-07-14T10:09:12.963Z,2.27
2023-07-14T10:11:50.657Z,1.90
2023-07-14T10:14:40.856Z,2.95
2023-07-14T10:17:25.374Z,1.98
2023-07-14T10:20:22.067Z,1.65
2023-07-14T10:22:58.497Z,1.62
2023-07-14T10:25:33.746Z,1.32
2023-07-14T10:28:11.534Z,1.50
2023-07-14T10:30:57.933Z,1.50
2023-07-14T10:33:35.185Z,1.92
2023-07-14T10:36:12.691Z,1.57
2023-07-14T10:38:49.563Z,2.00
2023-07-14T10:41:25.523Z,2.00
2023-07-14T10:44:03.105Z,1.92
2023-07-14T10:46:39.836Z,1.72
2023-07-14T10:49:16.813Z,1.87
2023-07-14T10:52:08.738Z,2.02
2023-07-14T10:57:28.381Z,1.87
2023-07-14T11:00:25.326Z,1.65
2023-07-14T11:03:07.186Z,1.60
2023-07-14T11:05:59.729Z,1.70
2023-07-14T11:08:34.518Z,1.95
2023-07-14T11:11:12.632Z,1.92
2023-07-14T11:13:51.982Z,2.40
2023-07-14T11:16:42.395Z,1.45
2023-07-14T11:19:19.683Z,1.72
2023-07-14T11:22:21.348Z,2.10
2023-07-14T11:24:51.895Z,2.25
2023-07-14T11:27:32.679Z,1.82
2023-07-14T11:30:11.208Z,2.58
2023-07-14T11:32:49.391Z,2.17
2023-07-14T11:35:28.841Z,1.92
2023-07-14T11:38:14.226Z,2.20
2023-07-14T11:40:50.168Z,1.70
2023-07-14T11:43:29.292Z,1.70
2023-07-14T11:46:22.733Z,2.22
2023-07-14T11:49:10.372Z,2.17
2023-07-14T11:52:01.889Z,2.30
2023-07-14T11:55:00.736Z,2.52
2023-07-14T11:57:50.074Z,1.57
2023-07-14T12:00:27.937Z,1.60
2023-07-14T12:03:16.673Z,1.65
2023-07-14T12:06:25.356Z,1.75
2023-07-14T12:12:07.183Z,1.50
2023-07-14T12:14:52.170Z,1.90
2023-07-14T12:17:50.187Z,1.70
2023-07-14T12:20:41.753Z,2.58
2023-07-14T12:23:28.072Z,2.40
2023-07-14T12:26:18.784Z,2.30
2023-07-14T12:28:54.631Z,2.15
2023-07-14T12:31:54.928Z,2.47
2023-07-14T12:34:32.582Z,2.72
2023-07-14T12:39:48.857Z,2.83
2023-07-14T12:42:24.526Z,2.50
2023-07-14T12:45:01.031Z,2.92
2023-07-14T12:47:50.858Z,2.55
2023-07-14T12:50:26.906Z,2.98
2023-07-14T12:53:01.300Z,3.35
2023-07-14T12:55:49.273Z,2.85
2023-07-14T12:58:25.820Z,3.30
2023-07-14T13:00:59.878Z,3.10
2023-07-14T13:03:38.445Z,3.45
2023-07-14T13:06:17.406Z,2.75
2023-07-14T13:08:52.907Z,3.15
2023-07-14T13:11:29.304Z,3.15
2023-07-14T13:14:21.458Z,3.20
2023-07-14T13:16:56.238Z,3.02
2023-07-14T13:19:36.082Z,2.72
2023-07-14T13:22:18.152Z,2.87
2023-07-14T13:25:08.562Z,3.02
2023-07-14T13:27:57.311Z,2.90
2023-07-14T13:30:33.383Z,2.85
2023-07-14T13:33:08.565Z,2.72
2023-07-14T13:36:01.318Z,3.65
2023-07-14T13:38:36.845Z,3.55
2023-07-14T13:41:28.624Z,3.08
2023-07-14T13:47:19.964Z,3.25
2023-07-14T13:49:55.078Z,3.20
2023-07-14T13:52:33.777Z,3.60
2023-07-14T13:55:14.722Z,3.55
2023-07-14T13:58:02.724Z,3.22
2023-07-14T14:00:36.513Z,3.95
2023-07-14T14:03:13.418Z,3.83
2023-07-14T14:05:47.363Z,3.13
2023-07-14T14:08:21.572Z,3.30
2023-07-14T14:10:55.389Z,3.40
2023-07-14T14:13:29.373Z,3.37
2023-07-14T14:16:20.077Z,2.80
2023-07-14T14:18:54.075Z,3.10
2023-07-14T14:21:28.859Z,3.22
2023-07-14T14:24:02.627Z,3.20
2023-07-14T14:26:36.395Z,3.10
2023-07-14T14:29:10.173Z,3.90
2023-07-14T14:31:43.967Z,3.33
2023-07-14T14:34:19.152Z,3.27
2023-07-14T14:37:09.911Z,3.75
2023-07-14T14:39:58.541Z,3.85
2023-07-14T14:42:32.375Z,4.42
2023-07-14T14:45:26.038Z,4.72
2023-07-14T14:48:00.209Z,4.10
2023-07-14T14:50:34.166Z,3.70
2023-07-14T14:53:23.404Z,4.12
2023-07-14T14:56:00.418Z,4.70
2023-07-14T14:58:48.463Z,4.30
2023-07-14T15:01:25.595Z,4.97
2023-07-14T15:03:59.761Z,4.35
2023-07-14T15:06:34.243Z,4.95
2023-07-14T15:09:08.239Z,4.70
2023-07-14T15:11:58.386Z,5.97
2023-07-14T15:14:35.156Z,4.45
2023-07-14T15:17:22.990Z,6.33
2023-07-14T15:19:57.415Z,5.50
2023-07-14T15:22:32.028Z,4.72
2023-07-14T15:25:20.218Z,9.48
2023-07-14T15:27:55.497Z,4.00
2023-07-14T15:30:31.541Z,4.58
2023-07-14T15:33:20.574Z,4.67
2023-07-14T15:35:57.655Z,3.45
2023-07-14T15:38:43.712Z,4.12
2023-07-14T15:41:21.348Z,5.35
2023-07-14T15:44:15.874Z,5.17
2023-07-14T15:46:49.895Z,5.80
2023-07-14T15:49:26.075Z,6.17
2023-07-14T15:52:17.541Z,6.08
2023-07-14T15:54:51.496Z,5.05
2023-07-14T15:57:41.165Z,5.42
2023-07-14T16:00:18.863Z,5.08
2023-07-14T16:05:25.964Z,5.15
2023-07-14T16:08:00.029Z,5.20
2023-07-14T16:10:35.776Z,4.60
2023-07-14T16:13:24.237Z,4.17
2023-07-14T16:15:58.105Z,5.03
2023-07-14T16:18:31.788Z,4.42
2023-07-14T16:21:07.308Z,4.70
2023-07-14T16:23:41.076Z,5.08
2023-07-14T16:26:15.501Z,4.37
2023-07-14T16:28:49.546Z,5.10
2023-07-14T16:31:23.476Z,5.33
2023-07-14T16:33:57.569Z,5.00
2023-07-14T16:36:34.372Z,5.22
2023-07-14T16:39:12.651Z,5.10
2023-07-14T16:41:46.848Z,5.37
2023-07-14T16:44:34.755Z,5.37
2023-07-14T16:47:12.307Z,5.53
2023-07-14T16:49:46.368Z,4.97
2023-07-14T16:52:26.303Z,4.97
2023-07-14T16:55:34.815Z,4.78
2023-07-14T16:58:12.607Z,5.05
2023-07-14T17:03:23.812Z,5.28
2023-07-14T17:06:14.485Z,5.22
2023-07-14T17:08:49.503Z,5.62
2023-07-14T17:11:24.420Z,6.37
2023-07-14T17:14:16.789Z,6.03
2023-07-14T17:16:50.780Z,5.80
2023-07-14T17:19:25.340Z,6.03
2023-07-14T17:22:02.434Z,7.17
2023-07-14T17:24:37.300Z,5.37
2023-07-14T17:27:16.954Z,4.85
2023-07-14T17:29:52.504Z,5.28
2023-07-14T17:32:40.176Z,5.58
2023-07-14T17:35:15.417Z,4.87
2023-07-14T17:37:49.993Z,5.45
2023-07-14T17:40:27.435Z,5.35
2023-07-14T17:43:04.252Z,5.83
2023-07-14T17:45:52.782Z,5.90
2023-07-14T17:48:26.814Z,5.20
2023-07-14T17:51:05.263Z,5.85
2023-07-14T17:53:40.998Z,4.95
2023-07-14T17:56:32.987Z,5.65
2023-07-14T17:59:07.132Z,6.12
2023-07-14T18:01:41.641Z,5.70
2023-07-14T18:04:30.754Z,6.05
2023-07-14T18:07:05.746Z,7.22
2023-07-14T18:09:39.979Z,5.87
2023-07-14T18:12:19.849Z,7.58
2023-07-14T18:14:53.890Z,9.25
2023-07-14T18:17:49.250Z,9.70
2023-07-14T18:20:25.486Z,8.30
2023-07-14T18:23:16.420Z,8.25
2023-07-14T18:25:51.666Z,7.33
2023-07-14T18:28:47.690Z,8.18
2023-07-14T18:31:22.146Z,9.90
2023-07-14T18:34:12.337Z,6.90
2023-07-14T18:36:46.974Z,6.35
2023-07-14T18:39:21.428Z,6.75
2023-07-14T18:41:56.885Z,7.50
2023-07-14T18:44:30.584Z,7.53
2023-07-14T18:47:05.953Z,8.58
2023-07-14T18:49:39.811Z,7.10
2023-07-14T18:52:16.904Z,7.47
2023-07-14T18:54:51.238Z,6.53
2023-07-14T18:57:25.688Z,7.10
2023-07-14T19:00:00.708Z,8.00
2023-07-14T19:02:49.839Z,7.35
2023-07-14T19:05:27.935Z,7.20
2023-07-14T19:08:10.536Z,7.05
2023-07-14T19:10:44.980Z,7.80
2023-07-14T19:13:22.767Z,10.25
2023-07-14T19:18:37.587Z,10.13
2023-07-14T19:21:17.485Z,7.03
2023-07-14T19:23:52.610Z,7.22
2023-07-14T19:26:26.534Z,6.97
2023-07-14T19:29:00.471Z,6.70
2023-07-14T19:31:34.924Z,7.15
2023-07-14T19:34:20.166Z,7.33
2023-07-14T19:36:54.213Z,7.72
2023-07-14T19:39:28.046Z,6.60
2023-07-14T19:42:02.016Z,13.72
2023-07-14T19:44:36.048Z,7.45
2023-07-14T19:50:25.467Z,6.65
2023-07-14T19:52:59.877Z,7.58
2023-07-14T19:55:33.881Z,6.33
2023-07-14T19:58:12.390Z,6.12
2023-07-14T20:00:47.275Z,6.58
2023-07-14T20:03:23.125Z,5.80
2023-07-14T20:05:57.969Z,7.50
2023-07-14T20:08:43.748Z,6.17
2023-07-14T20:11:17.864Z,5.75
2023-07-14T20:14:07.630Z,5.90
2023-07-14T20:16:41.450Z,5.17
2023-07-14T20:19:15.152Z,4.40
2023-07-14T20:22:22.843Z,4.90
2023-07-14T20:24:56.730Z,5.05
2023-07-14T20:27:30.271Z,6.15
2023-07-14T20:30:05.749Z,9.88
2023-07-14T20:32:53.985Z,10.88
2023-07-14T20:35:41.802Z,11.57
2023-07-14T20:38:18.008Z,14.98
2023-07-14T20:41:06.220Z,15.30
2023-07-14T20:43:40.031Z,14.03
2023-07-14T20:46:36.069Z,13.15
2023-07-14T20:49:17.177Z,12.82
2023-07-14T20:51:59.959Z,12.93
2023-07-14T20:54:33.752Z,14.43
2023-07-14T20:57:22.363Z,9.90
2023-07-14T20:59:56.999Z,10.88
2023-07-14T21:02:46.009Z,9.65
2023-07-14T21:05:20.676Z,9.20
2023-07-14T21:08:21.233Z,9.18
2023-07-14T21:11:06.873Z,9.05
2023-07-14T21:13:56.567Z,7.90
2023-07-14T21:16:32.070Z,9.20
2023-07-14T21:19:05.584Z,9.08
2023-07-14T21:21:40.049Z,9.83
2023-07-14T21:24:19.634Z,9.53
2023-07-14T21:26:53.660Z,10.70
2023-07-14T21:29:41.552Z,10.45
2023-07-14T21:32:28.877Z,9.75
2023-07-14T21:35:21.960Z,9.35
2023-07-14T21:37:56.269Z,9.63
2023-07-14T21:40:32.187Z,9.30
2023-07-14T21:43:22.725Z,9.48
2023-07-14T21:45:56.771Z,9.13
2023-07-14T21:48:31.275Z,9.45
2023-07-14T21:51:07.262Z,9.28
2023-07-14T21:53:42.396Z,9.00
2023-07-14T21:56:16.782Z,9.83
2023-07-14T21:58:50.724Z,9.45
2023-07-14T22:01:27.718Z,11.50
2023-07-14T22:04:04.091Z,10.65
2023-07-14T22:06:38.108Z,8.98
2023-07-14T22:09:11.632Z,9.95
2023-07-14T22:12:01.154Z,9.65
2023-07-14T22:14:37.179Z,9.25
2023-07-14T22:17:15.369Z,9.75
2023-07-14T22:19:50.365Z,9.38
2023-07-14T22:22:24.224Z,10.82
2023-07-14T22:24:59.099Z,11.63
2023-07-14T22:27:34.594Z,11.20
2023-07-14T22:30:13.057Z,11.10
2023-07-14T22:32:48.480Z,10.98
2023-07-14T22:35:22.778Z,10.78
2023-07-14T22:37:57.025Z,10.55
2023-07-14T22:40:30.731Z,9.53
2023-07-14T22:43:04.623Z,10.30
2023-07-14T22:45:40.123Z,9.30
2023-07-14T22:48:16.212Z,9.85
2023-07-14T22:50:51.512Z,10.25
2023-07-14T22:53:26.343Z,10.53
2023-07-14T22:56:00.133Z,10.00
2023-07-14T22:58:33.966Z,10.13
2023-07-14T23:01:15.162Z,10.05
2023-07-14T23:03:50.128Z,10.00
2023-07-14T23:06:25.625Z,10.03
2023-07-14T23:09:00.435Z,10.98
2023-07-14T23:11:38.300Z,11.22
2023-07-14T23:16:48.156Z,10.10
2023-07-14T23:19:22.018Z,10.55
2023-07-14T23:21:55.466Z,10.15
2023-07-14T23:24:29.238Z,9.78
2023-07-14T23:27:02.890Z,9.75
2023-07-14T23:29:36.769Z,8.98
2023-07-14T23:32:13.463Z,8.85
2023-07-14T23:34:47.787Z,8.00
2023-07-14T23:37:21.691Z,7.83
2023-07-14T23:39:55.573Z,8.33
2023-07-14T23:42:33.524Z,7.40
2023-07-14T23:45:11.932Z,7.45
2023-07-14T23:48:00.224Z,7.72
2023-07-14T23:50:36.501Z,6.67
2023-07-14T23:53:19.028Z,6.75
2023-07-14T23:56:08.983Z,7.33
2023-07-14T23:58:42.850Z,6.60
